sensor_id;sensor_type;location;lat;lon;timestamp;temperature;humidity
36856;DHT22;22788;51.434;6.786;2022-10-15T00:00:46;14.50;94.30
36856;DHT22;22788;51.434;6.786;2022-10-15T00:03:12;14.50;94.30
36856;DHT22;22788;51.434;6.786;2022-10-15T00:05:39;14.50;94.30
36856;DHT22;22788;51.434;6.786;2022-10-15T00:08:06;14.50;94.40
36856;DHT22;22788;51.434;6.786;2022-10-15T00:10:34;14.50;94.30
36856;DHT22;22788;51.434;6.786;2022-10-15T00:13:01;14.50;94.40
36856;DHT22;22788;51.434;6.786;2022-10-15T00:15:27;14.50;94.60
36856;DHT22;22788;51.434;6.786;2022-10-15T00:17:53;14.50;94.40
36856;DHT22;22788;51.434;6.786;2022-10-15T00:20:20;14.50;94.40
36856;DHT22;22788;51.434;6.786;2022-10-15T00:22:46;14.50;94.50
36856;DHT22;22788;51.434;6.786;2022-10-15T00:25:12;14.50;94.50
36856;DHT22;22788;51.434;6.786;2022-10-15T00:27:39;14.50;94.50
36856;DHT22;22788;51.434;6.786;2022-10-15T00:30:06;14.50;94.50
36856;DHT22;22788;51.434;6.786;2022-10-15T00:32:33;14.50;94.50
36856;DHT22;22788;51.434;6.786;2022-10-15T00:34:59;14.50;94.50
36856;DHT22;22788;51.434;6.786;2022-10-15T00:37:25;14.50;94.50
36856;DHT22;22788;51.434;6.786;2022-10-15T00:39:51;14.50;94.50
36856;DHT22;22788;51.434;6.786;2022-10-15T00:42:17;14.60;94.60
36856;DHT22;22788;51.434;6.786;2022-10-15T00:44:50;14.50;94.50
36856;DHT22;22788;51.434;6.786;2022-10-15T00:47:20;14.50;94.50
36856;DHT22;22788;51.434;6.786;2022-10-15T00:49:55;14.50;94.50
36856;DHT22;22788;51.434;6.786;2022-10-15T00:52:25;14.50;94.50
36856;DHT22;22788;51.434;6.786;2022-10-15T00:54:58;14.50;94.60
36856;DHT22;22788;51.434;6.786;2022-10-15T00:57:24;14.50;94.60
36856;DHT22;22788;51.434;6.786;2022-10-15T00:59:56;14.50;94.60
36856;DHT22;22788;51.434;6.786;2022-10-15T01:02:23;14.50;94.60
36856;DHT22;22788;51.434;6.786;2022-10-15T01:04:49;14.50;94.60
36856;DHT22;22788;51.434;6.786;2022-10-15T01:07:16;14.50;94.60
36856;DHT22;22788;51.434;6.786;2022-10-15T01:09:42;14.50;94.60
36856;DHT22;22788;51.434;6.786;2022-10-15T01:12:13;14.50;94.60
36856;DHT22;22788;51.434;6.786;2022-10-15T01:14:47;14.50;94.60
36856;DHT22;22788;51.434;6.786;2022-10-15T01:17:20;14.50;94.60
36856;DHT22;22788;51.434;6.786;2022-10-15T01:20:09;14.50;94.80
36856;DHT22;22788;51.434;6.786;2022-10-15T01:22:45;14.50;94.60
36856;DHT22;22788;51.434;6.786;2022-10-15T01:25:27;14.50;94.60
36856;DHT22;22788;51.434;6.786;2022-10-15T01:27:57;14.50;94.60
36856;DHT22;22788;51.434;6.786;2022-10-15T01:30:31;14.50;94.70
36856;DHT22;22788;51.434;6.786;2022-10-15T01:33:09;14.50;94.90
36856;DHT22;22788;51.434;6.786;2022-10-15T01:35:47;14.50;94.70
36856;DHT22;22788;51.434;6.786;2022-10-15T01:38:32;14.50;94.70
36856;DHT22;22788;51.434;6.786;2022-10-15T01:41:03;14.50;94.70
36856;DHT22;22788;51.434;6.786;2022-10-15T01:43:36;14.40;94.70
36856;DHT22;22788;51.434;6.786;2022-10-15T01:46:07;14.60;94.70
36856;DHT22;22788;51.434;6.786;2022-10-15T01:48:37;14.50;94.80
36856;DHT22;22788;51.434;6.786;2022-10-15T01:51:05;14.40;94.80
36856;DHT22;22788;51.434;6.786;2022-10-15T01:53:32;14.40;94.70
36856;DHT22;22788;51.434;6.786;2022-10-15T01:56:03;14.40;94.80
36856;DHT22;22788;51.434;6.786;2022-10-15T01:58:29;14.40;94.80
36856;DHT22;22788;51.434;6.786;2022-10-15T02:00:57;14.40;94.80
36856;DHT22;22788;51.434;6.786;2022-10-15T02:03:25;14.40;94.80
36856;DHT22;22788;51.434;6.786;2022-10-15T02:05:55;14.40;94.80
36856;DHT22;22788;51.434;6.786;2022-10-15T02:08:30;14.50;94.80
36856;DHT22;22788;51.434;6.786;2022-10-15T02:11:03;14.50;94.80
36856;DHT22;22788;51.434;6.786;2022-10-15T02:13:37;14.40;94.80
36856;DHT22;22788;51.434;6.786;2022-10-15T02:16:12;14.40;94.80
36856;DHT22;22788;51.434;6.786;2022-10-15T02:18:44;14.50;94.80
36856;DHT22;22788;51.434;6.786;2022-10-15T02:21:15;14.50;94.80
36856;DHT22;22788;51.434;6.786;2022-10-15T02:23:46;14.50;94.90
36856;DHT22;22788;51.434;6.786;2022-10-15T02:26:15;14.50;94.90
36856;DHT22;22788;51.434;6.786;2022-10-15T02:28:45;14.40;94.90
36856;DHT22;22788;51.434;6.786;2022-10-15T02:31:14;14.40;94.90
36856;DHT22;22788;51.434;6.786;2022-10-15T02:33:42;14.40;94.90
36856;DHT22;22788;51.434;6.786;2022-10-15T02:36:09;14.40;94.90
36856;DHT22;22788;51.434;6.786;2022-10-15T02:38:36;14.40;94.90
36856;DHT22;22788;51.434;6.786;2022-10-15T02:41:06;14.40;94.90
36856;DHT22;22788;51.434;6.786;2022-10-15T02:43:34;14.40;94.90
36856;DHT22;22788;51.434;6.786;2022-10-15T02:46:01;14.40;94.90
36856;DHT22;22788;51.434;6.786;2022-10-15T02:48:27;14.40;94.90
36856;DHT22;22788;51.434;6.786;2022-10-15T02:50:54;14.50;94.90
36856;DHT22;22788;51.434;6.786;2022-10-15T02:53:20;14.50;94.90
36856;DHT22;22788;51.434;6.786;2022-10-15T02:55:46;14.50;94.90
36856;DHT22;22788;51.434;6.786;2022-10-15T02:58:12;14.40;94.90
36856;DHT22;22788;51.434;6.786;2022-10-15T03:00:38;14.40;95.00
36856;DHT22;22788;51.434;6.786;2022-10-15T03:03:04;14.40;94.90
36856;DHT22;22788;51.434;6.786;2022-10-15T03:05:30;14.40;95.00
36856;DHT22;22788;51.434;6.786;2022-10-15T03:07:59;14.40;95.00
36856;DHT22;22788;51.434;6.786;2022-10-15T03:10:25;14.40;95.00
36856;DHT22;22788;51.434;6.786;2022-10-15T03:12:51;14.40;95.00
36856;DHT22;22788;51.434;6.786;2022-10-15T03:15:17;14.40;95.00
36856;DHT22;22788;51.434;6.786;2022-10-15T03:17:43;14.40;95.00
36856;DHT22;22788;51.434;6.786;2022-10-15T03:20:10;14.40;95.00
36856;DHT22;22788;51.434;6.786;2022-10-15T03:22:36;14.40;95.00
36856;DHT22;22788;51.434;6.786;2022-10-15T03:25:04;14.40;95.10
36856;DHT22;22788;51.434;6.786;2022-10-15T03:27:30;14.40;95.10
36856;DHT22;22788;51.434;6.786;2022-10-15T03:29:56;14.40;95.10
36856;DHT22;22788;51.434;6.786;2022-10-15T03:32:22;14.40;95.00
36856;DHT22;22788;51.434;6.786;2022-10-15T03:34:48;14.40;95.00
36856;DHT22;22788;51.434;6.786;2022-10-15T03:37:14;14.40;95.00
36856;DHT22;22788;51.434;6.786;2022-10-15T03:39:40;14.40;95.10
36856;DHT22;22788;51.434;6.786;2022-10-15T03:42:07;14.40;95.10
36856;DHT22;22788;51.434;6.786;2022-10-15T03:44:33;14.40;95.10
36856;DHT22;22788;51.434;6.786;2022-10-15T03:46:59;14.40;95.00
36856;DHT22;22788;51.434;6.786;2022-10-15T03:49:25;14.40;95.00
36856;DHT22;22788;51.434;6.786;2022-10-15T03:51:51;14.40;95.10
36856;DHT22;22788;51.434;6.786;2022-10-15T03:54:17;14.40;95.10
36856;DHT22;22788;51.434;6.786;2022-10-15T03:56:43;14.40;95.00
36856;DHT22;22788;51.434;6.786;2022-10-15T03:59:11;14.40;95.00
36856;DHT22;22788;51.434;6.786;2022-10-15T04:01:37;14.40;95.00
36856;DHT22;22788;51.434;6.786;2022-10-15T04:04:04;14.40;95.00
36856;DHT22;22788;51.434;6.786;2022-10-15T04:06:30;14.40;95.00
36856;DHT22;22788;51.434;6.786;2022-10-15T04:08:56;14.40;95.00
36856;DHT22;22788;51.434;6.786;2022-10-15T04:11:22;14.40;95.10
36856;DHT22;22788;51.434;6.786;2022-10-15T04:13:48;14.40;95.00
36856;DHT22;22788;51.434;6.786;2022-10-15T04:16:16;14.40;95.10
36856;DHT22;22788;51.434;6.786;2022-10-15T04:18:42;14.40;95.40
36856;DHT22;22788;51.434;6.786;2022-10-15T04:21:08;14.40;95.20
36856;DHT22;22788;51.434;6.786;2022-10-15T04:23:34;14.40;95.20
36856;DHT22;22788;51.434;6.786;2022-10-15T04:26:00;14.40;95.20
36856;DHT22;22788;51.434;6.786;2022-10-15T04:28:27;14.40;95.10
36856;DHT22;22788;51.434;6.786;2022-10-15T04:30:55;14.40;95.10
36856;DHT22;22788;51.434;6.786;2022-10-15T04:33:23;14.40;95.10
36856;DHT22;22788;51.434;6.786;2022-10-15T04:35:57;14.40;95.10
36856;DHT22;22788;51.434;6.786;2022-10-15T04:38:23;14.40;95.20
36856;DHT22;22788;51.434;6.786;2022-10-15T04:40:57;14.40;95.10
36856;DHT22;22788;51.434;6.786;2022-10-15T04:43:23;14.40;95.10
36856;DHT22;22788;51.434;6.786;2022-10-15T04:45:49;14.40;95.10
36856;DHT22;22788;51.434;6.786;2022-10-15T04:48:15;14.40;95.10
36856;DHT22;22788;51.434;6.786;2022-10-15T04:50:42;14.40;95.10
36856;DHT22;22788;51.434;6.786;2022-10-15T04:53:08;14.40;95.10
36856;DHT22;22788;51.434;6.786;2022-10-15T04:55:34;14.40;95.10
36856;DHT22;22788;51.434;6.786;2022-10-15T04:58:00;14.40;95.10
36856;DHT22;22788;51.434;6.786;2022-10-15T05:00:26;14.40;95.10
36856;DHT22;22788;51.434;6.786;2022-10-15T05:02:52;14.40;95.20
36856;DHT22;22788;51.434;6.786;2022-10-15T05:05:18;14.40;95.10
36856;DHT22;22788;51.434;6.786;2022-10-15T05:07:46;14.40;95.10
36856;DHT22;22788;51.434;6.786;2022-10-15T05:10:12;14.40;95.10
36856;DHT22;22788;51.434;6.786;2022-10-15T05:12:38;14.40;95.10
36856;DHT22;22788;51.434;6.786;2022-10-15T05:15:05;14.50;95.20
36856;DHT22;22788;51.434;6.786;2022-10-15T05:17:31;14.40;95.10
36856;DHT22;22788;51.434;6.786;2022-10-15T05:19:57;14.40;95.10
36856;DHT22;22788;51.434;6.786;2022-10-15T05:22:23;14.40;95.10
36856;DHT22;22788;51.434;6.786;2022-10-15T05:24:50;14.40;95.30
36856;DHT22;22788;51.434;6.786;2022-10-15T05:27:17;14.40;95.20
36856;DHT22;22788;51.434;6.786;2022-10-15T05:29:43;14.40;95.20
36856;DHT22;22788;51.434;6.786;2022-10-15T05:32:09;14.40;95.20
36856;DHT22;22788;51.434;6.786;2022-10-15T05:34:35;14.40;95.20
36856;DHT22;22788;51.434;6.786;2022-10-15T05:37:01;14.40;95.20
36856;DHT22;22788;51.434;6.786;2022-10-15T05:39:27;14.40;95.20
36856;DHT22;22788;51.434;6.786;2022-10-15T05:41:54;14.40;95.20
36856;DHT22;22788;51.434;6.786;2022-10-15T05:44:20;14.40;95.20
36856;DHT22;22788;51.434;6.786;2022-10-15T05:46:47;14.40;95.20
36856;DHT22;22788;51.434;6.786;2022-10-15T05:49:13;14.30;95.20
36856;DHT22;22788;51.434;6.786;2022-10-15T05:51:39;14.40;95.20
36856;DHT22;22788;51.434;6.786;2022-10-15T05:54:05;14.40;95.20
36856;DHT22;22788;51.434;6.786;2022-10-15T05:56:31;14.40;95.20
36856;DHT22;22788;51.434;6.786;2022-10-15T05:58:59;14.40;95.20
36856;DHT22;22788;51.434;6.786;2022-10-15T06:01:25;14.40;95.20
36856;DHT22;22788;51.434;6.786;2022-10-15T06:03:51;14.50;95.20
36856;DHT22;22788;51.434;6.786;2022-10-15T06:06:18;14.40;95.20
36856;DHT22;22788;51.434;6.786;2022-10-15T06:08:45;14.30;95.20
36856;DHT22;22788;51.434;6.786;2022-10-15T06:11:11;14.40;95.20
36856;DHT22;22788;51.434;6.786;2022-10-15T06:13:38;14.40;95.20
36856;DHT22;22788;51.434;6.786;2022-10-15T06:16:07;14.40;95.20
36856;DHT22;22788;51.434;6.786;2022-10-15T06:18:33;14.40;95.20
36856;DHT22;22788;51.434;6.786;2022-10-15T06:21:00;14.40;95.20
36856;DHT22;22788;51.434;6.786;2022-10-15T06:23:26;14.40;95.20
36856;DHT22;22788;51.434;6.786;2022-10-15T06:25:52;14.30;95.20
36856;DHT22;22788;51.434;6.786;2022-10-15T06:28:19;14.40;95.20
36856;DHT22;22788;51.434;6.786;2022-10-15T06:30:45;14.40;95.20
36856;DHT22;22788;51.434;6.786;2022-10-15T06:33:12;14.40;95.20
36856;DHT22;22788;51.434;6.786;2022-10-15T06:35:38;14.40;95.20
36856;DHT22;22788;51.434;6.786;2022-10-15T06:38:05;14.40;95.20
36856;DHT22;22788;51.434;6.786;2022-10-15T06:40:31;14.40;95.20
36856;DHT22;22788;51.434;6.786;2022-10-15T06:43:02;14.40;95.20
36856;DHT22;22788;51.434;6.786;2022-10-15T06:45:28;14.30;95.80
36856;DHT22;22788;51.434;6.786;2022-10-15T06:47:54;14.30;95.30
36856;DHT22;22788;51.434;6.786;2022-10-15T06:50:22;14.40;95.30
36856;DHT22;22788;51.434;6.786;2022-10-15T06:52:48;14.30;95.30
36856;DHT22;22788;51.434;6.786;2022-10-15T06:55:14;14.30;95.30
36856;DHT22;22788;51.434;6.786;2022-10-15T06:57:40;14.30;95.30
36856;DHT22;22788;51.434;6.786;2022-10-15T07:00:07;14.40;95.20
36856;DHT22;22788;51.434;6.786;2022-10-15T07:02:34;14.30;95.30
36856;DHT22;22788;51.434;6.786;2022-10-15T07:05:00;14.40;95.20
36856;DHT22;22788;51.434;6.786;2022-10-15T07:07:27;14.40;95.20
36856;DHT22;22788;51.434;6.786;2022-10-15T07:09:53;14.40;95.40
36856;DHT22;22788;51.434;6.786;2022-10-15T07:12:19;14.40;95.30
36856;DHT22;22788;51.434;6.786;2022-10-15T07:14:45;14.40;95.20
36856;DHT22;22788;51.434;6.786;2022-10-15T07:17:11;14.40;95.40
36856;DHT22;22788;51.434;6.786;2022-10-15T07:19:37;14.40;95.50
36856;DHT22;22788;51.434;6.786;2022-10-15T07:22:03;14.40;95.30
36856;DHT22;22788;51.434;6.786;2022-10-15T07:24:31;14.40;95.30
36856;DHT22;22788;51.434;6.786;2022-10-15T07:26:57;14.40;95.30
36856;DHT22;22788;51.434;6.786;2022-10-15T07:29:23;14.40;95.30
36856;DHT22;22788;51.434;6.786;2022-10-15T07:31:49;14.40;95.20
36856;DHT22;22788;51.434;6.786;2022-10-15T07:34:15;14.40;95.40
36856;DHT22;22788;51.434;6.786;2022-10-15T07:36:41;14.40;95.20
36856;DHT22;22788;51.434;6.786;2022-10-15T07:39:07;14.40;95.20
36856;DHT22;22788;51.434;6.786;2022-10-15T07:41:35;14.40;95.20
36856;DHT22;22788;51.434;6.786;2022-10-15T07:44:01;14.50;95.20
36856;DHT22;22788;51.434;6.786;2022-10-15T07:46:27;14.50;95.20
36856;DHT22;22788;51.434;6.786;2022-10-15T07:48:53;14.50;95.80
36856;DHT22;22788;51.434;6.786;2022-10-15T07:51:19;14.50;95.20
36856;DHT22;22788;51.434;6.786;2022-10-15T07:53:45;14.40;95.20
36856;DHT22;22788;51.434;6.786;2022-10-15T07:56:16;14.50;95.30
36856;DHT22;22788;51.434;6.786;2022-10-15T07:58:43;14.40;95.20
36856;DHT22;22788;51.434;6.786;2022-10-15T08:01:10;14.50;95.10
36856;DHT22;22788;51.434;6.786;2022-10-15T08:03:36;14.50;95.10
36856;DHT22;22788;51.434;6.786;2022-10-15T08:06:04;14.70;95.20
36856;DHT22;22788;51.434;6.786;2022-10-15T08:08:30;14.50;95.10
36856;DHT22;22788;51.434;6.786;2022-10-15T08:11:03;14.60;95.10
36856;DHT22;22788;51.434;6.786;2022-10-15T08:13:30;14.50;95.10
36856;DHT22;22788;51.434;6.786;2022-10-15T08:15:58;14.60;95.40
36856;DHT22;22788;51.434;6.786;2022-10-15T08:18:24;14.50;95.20
36856;DHT22;22788;51.434;6.786;2022-10-15T08:20:50;14.50;95.20
36856;DHT22;22788;51.434;6.786;2022-10-15T08:23:16;14.50;95.10
36856;DHT22;22788;51.434;6.786;2022-10-15T08:25:42;14.60;95.10
36856;DHT22;22788;51.434;6.786;2022-10-15T08:28:09;14.50;95.20
36856;DHT22;22788;51.434;6.786;2022-10-15T08:30:35;14.60;95.20
36856;DHT22;22788;51.434;6.786;2022-10-15T08:33:03;14.50;96.10
36856;DHT22;22788;51.434;6.786;2022-10-15T08:35:29;14.50;95.30
36856;DHT22;22788;51.434;6.786;2022-10-15T08:37:55;14.60;95.30
36856;DHT22;22788;51.434;6.786;2022-10-15T08:40:21;14.60;95.10
36856;DHT22;22788;51.434;6.786;2022-10-15T08:42:47;14.60;95.60
36856;DHT22;22788;51.434;6.786;2022-10-15T08:45:17;14.60;95.20
36856;DHT22;22788;51.434;6.786;2022-10-15T08:47:47;14.60;95.10
36856;DHT22;22788;51.434;6.786;2022-10-15T08:50:24;14.60;94.90
36856;DHT22;22788;51.434;6.786;2022-10-15T08:52:53;14.60;95.00
36856;DHT22;22788;51.434;6.786;2022-10-15T08:55:21;14.60;95.80
36856;DHT22;22788;51.434;6.786;2022-10-15T08:57:51;14.60;95.50
36856;DHT22;22788;51.434;6.786;2022-10-15T09:00:20;14.60;95.10
36856;DHT22;22788;51.434;6.786;2022-10-15T09:02:53;14.60;95.00
36856;DHT22;22788;51.434;6.786;2022-10-15T09:05:29;14.60;95.10
36856;DHT22;22788;51.434;6.786;2022-10-15T09:08:01;14.70;95.00
36856;DHT22;22788;51.434;6.786;2022-10-15T09:10:36;14.70;95.70
36856;DHT22;22788;51.434;6.786;2022-10-15T09:13:07;14.80;95.30
36856;DHT22;22788;51.434;6.786;2022-10-15T09:15:39;14.70;94.90
36856;DHT22;22788;51.434;6.786;2022-10-15T09:18:11;14.70;95.00
36856;DHT22;22788;51.434;6.786;2022-10-15T09:20:43;14.70;94.90
36856;DHT22;22788;51.434;6.786;2022-10-15T09:23:14;14.70;95.00
36856;DHT22;22788;51.434;6.786;2022-10-15T09:25:44;14.80;95.60
36856;DHT22;22788;51.434;6.786;2022-10-15T09:28:15;14.80;95.00
36856;DHT22;22788;51.434;6.786;2022-10-15T09:30:47;14.80;94.90
36856;DHT22;22788;51.434;6.786;2022-10-15T09:33:28;14.80;95.00
36856;DHT22;22788;51.434;6.786;2022-10-15T09:36:04;14.80;95.40
36856;DHT22;22788;51.434;6.786;2022-10-15T09:38:45;14.80;94.90
36856;DHT22;22788;51.434;6.786;2022-10-15T09:41:18;14.70;95.20
36856;DHT22;22788;51.434;6.786;2022-10-15T09:43:49;14.80;95.60
36856;DHT22;22788;51.434;6.786;2022-10-15T09:46:17;14.80;95.00
36856;DHT22;22788;51.434;6.786;2022-10-15T09:48:46;14.90;95.30
36856;DHT22;22788;51.434;6.786;2022-10-15T09:51:23;14.80;94.80
36856;DHT22;22788;51.434;6.786;2022-10-15T09:53:59;14.80;95.20
36856;DHT22;22788;51.434;6.786;2022-10-15T09:56:32;14.80;94.70
36856;DHT22;22788;51.434;6.786;2022-10-15T09:58:59;14.90;95.40
36856;DHT22;22788;51.434;6.786;2022-10-15T10:01:26;14.90;95.10
36856;DHT22;22788;51.434;6.786;2022-10-15T10:04:08;14.90;95.10
36856;DHT22;22788;51.434;6.786;2022-10-15T10:06:42;14.90;94.90
36856;DHT22;22788;51.434;6.786;2022-10-15T10:09:15;14.90;95.20
36856;DHT22;22788;51.434;6.786;2022-10-15T10:11:47;14.90;95.20
36856;DHT22;22788;51.434;6.786;2022-10-15T10:14:22;14.90;94.90
36856;DHT22;22788;51.434;6.786;2022-10-15T10:17:13;14.90;95.00
36856;DHT22;22788;51.434;6.786;2022-10-15T10:19:39;14.90;95.60
36856;DHT22;22788;51.434;6.786;2022-10-15T10:22:14;15.00;95.60
36856;DHT22;22788;51.434;6.786;2022-10-15T10:24:40;15.00;95.00
36856;DHT22;22788;51.434;6.786;2022-10-15T10:27:17;15.00;94.90
36856;DHT22;22788;51.434;6.786;2022-10-15T10:29:48;15.00;94.80
36856;DHT22;22788;51.434;6.786;2022-10-15T10:32:18;15.00;94.70
36856;DHT22;22788;51.434;6.786;2022-10-15T10:34:45;15.00;94.90
36856;DHT22;22788;51.434;6.786;2022-10-15T10:37:13;15.00;97.20
36856;DHT22;22788;51.434;6.786;2022-10-15T10:39:41;15.10;95.30
36856;DHT22;22788;51.434;6.786;2022-10-15T10:42:27;15.00;95.10
36856;DHT22;22788;51.434;6.786;2022-10-15T10:45:13;15.00;95.90
36856;DHT22;22788;51.434;6.786;2022-10-15T10:47:40;15.10;95.30
36856;DHT22;22788;51.434;6.786;2022-10-15T10:50:26;15.00;94.90
36856;DHT22;22788;51.434;6.786;2022-10-15T10:52:54;15.10;95.80
36856;DHT22;22788;51.434;6.786;2022-10-15T10:55:22;15.00;96.30
36856;DHT22;22788;51.434;6.786;2022-10-15T10:57:53;15.00;95.20
36856;DHT22;22788;51.434;6.786;2022-10-15T11:00:21;15.00;95.20
36856;DHT22;22788;51.434;6.786;2022-10-15T11:02:50;15.10;95.70
36856;DHT22;22788;51.434;6.786;2022-10-15T11:05:28;15.10;95.60
36856;DHT22;22788;51.434;6.786;2022-10-15T11:08:01;15.00;95.40
36856;DHT22;22788;51.434;6.786;2022-10-15T11:10:33;15.10;95.50
36856;DHT22;22788;51.434;6.786;2022-10-15T11:13:11;15.00;95.00
36856;DHT22;22788;51.434;6.786;2022-10-15T11:15:44;15.00;95.00
36856;DHT22;22788;51.434;6.786;2022-10-15T11:21:18;15.10;95.80
36856;DHT22;22788;51.434;6.786;2022-10-15T11:24:02;15.10;95.70
36856;DHT22;22788;51.434;6.786;2022-10-15T11:26:38;15.10;95.70
36856;DHT22;22788;51.434;6.786;2022-10-15T11:29:11;15.10;95.30
36856;DHT22;22788;51.434;6.786;2022-10-15T11:31:46;15.20;95.30
36856;DHT22;22788;51.434;6.786;2022-10-15T11:34:24;15.10;95.20
36856;DHT22;22788;51.434;6.786;2022-10-15T11:37:04;15.20;95.50
36856;DHT22;22788;51.434;6.786;2022-10-15T11:39:51;15.20;95.70
36856;DHT22;22788;51.434;6.786;2022-10-15T11:42:24;15.20;96.40
36856;DHT22;22788;51.434;6.786;2022-10-15T11:45:02;15.20;94.90
36856;DHT22;22788;51.434;6.786;2022-10-15T11:47:42;15.20;95.40
36856;DHT22;22788;51.434;6.786;2022-10-15T11:50:17;15.30;96.10
36856;DHT22;22788;51.434;6.786;2022-10-15T11:52:55;15.30;96.70
36856;DHT22;22788;51.434;6.786;2022-10-15T11:55:34;15.30;95.70
36856;DHT22;22788;51.434;6.786;2022-10-15T11:58:05;15.30;96.30
36856;DHT22;22788;51.434;6.786;2022-10-15T12:00:38;15.30;96.20
36856;DHT22;22788;51.434;6.786;2022-10-15T12:03:11;15.30;95.30
36856;DHT22;22788;51.434;6.786;2022-10-15T12:05:43;15.30;95.10
36856;DHT22;22788;51.434;6.786;2022-10-15T12:08:11;15.30;95.70
36856;DHT22;22788;51.434;6.786;2022-10-15T12:11:03;15.30;96.30
36856;DHT22;22788;51.434;6.786;2022-10-15T12:13:37;15.30;96.70
36856;DHT22;22788;51.434;6.786;2022-10-15T12:16:15;15.40;95.70
36856;DHT22;22788;51.434;6.786;2022-10-15T12:18:49;15.30;96.80
36856;DHT22;22788;51.434;6.786;2022-10-15T12:21:30;15.60;95.50
36856;DHT22;22788;51.434;6.786;2022-10-15T12:23:56;15.30;95.20
36856;DHT22;22788;51.434;6.786;2022-10-15T12:26:29;15.40;95.60
36856;DHT22;22788;51.434;6.786;2022-10-15T12:28:57;15.30;95.20
36856;DHT22;22788;51.434;6.786;2022-10-15T12:31:24;15.30;95.40
36856;DHT22;22788;51.434;6.786;2022-10-15T12:33:51;15.40;96.40
36856;DHT22;22788;51.434;6.786;2022-10-15T12:36:24;15.30;95.20
36856;DHT22;22788;51.434;6.786;2022-10-15T12:38:56;15.30;94.90
36856;DHT22;22788;51.434;6.786;2022-10-15T12:41:35;15.30;95.00
36856;DHT22;22788;51.434;6.786;2022-10-15T12:44:10;15.40;96.30
36856;DHT22;22788;51.434;6.786;2022-10-15T12:46:39;15.50;95.70
36856;DHT22;22788;51.434;6.786;2022-10-15T12:49:43;15.40;95.40
36856;DHT22;22788;51.434;6.786;2022-10-15T12:55:22;15.40;95.60
36856;DHT22;22788;51.434;6.786;2022-10-15T12:57:54;15.60;96.70
36856;DHT22;22788;51.434;6.786;2022-10-15T13:00:38;15.50;95.10
36856;DHT22;22788;51.434;6.786;2022-10-15T13:03:20;15.50;95.00
36856;DHT22;22788;51.434;6.786;2022-10-15T13:05:47;15.50;95.10
36856;DHT22;22788;51.434;6.786;2022-10-15T13:08:18;15.60;95.90
36856;DHT22;22788;51.434;6.786;2022-10-15T13:10:48;15.60;95.40
36856;DHT22;22788;51.434;6.786;2022-10-15T13:13:19;15.60;95.10
36856;DHT22;22788;51.434;6.786;2022-10-15T13:15:51;15.70;97.20
36856;DHT22;22788;51.434;6.786;2022-10-15T13:18:20;15.60;95.90
36856;DHT22;22788;51.434;6.786;2022-10-15T13:20:47;15.70;97.40
36856;DHT22;22788;51.434;6.786;2022-10-15T13:23:17;15.70;97.60
36856;DHT22;22788;51.434;6.786;2022-10-15T13:25:44;15.70;96.40
36856;DHT22;22788;51.434;6.786;2022-10-15T13:28:31;15.80;97.00
36856;DHT22;22788;51.434;6.786;2022-10-15T13:30:57;15.80;95.70
36856;DHT22;22788;51.434;6.786;2022-10-15T13:33:24;15.80;96.80
36856;DHT22;22788;51.434;6.786;2022-10-15T13:35:51;15.80;96.20
36856;DHT22;22788;51.434;6.786;2022-10-15T13:38:20;15.90;96.80
36856;DHT22;22788;51.434;6.786;2022-10-15T13:40:48;15.90;97.70
36856;DHT22;22788;51.434;6.786;2022-10-15T13:43:16;16.00;98.30
36856;DHT22;22788;51.434;6.786;2022-10-15T13:45:47;16.00;98.00
36856;DHT22;22788;51.434;6.786;2022-10-15T13:48:18;16.10;98.60
36856;DHT22;22788;51.434;6.786;2022-10-15T13:50:46;16.10;97.90
36856;DHT22;22788;51.434;6.786;2022-10-15T13:53:17;15.90;96.40
36856;DHT22;22788;51.434;6.786;2022-10-15T13:55:48;15.90;96.70
36856;DHT22;22788;51.434;6.786;2022-10-15T13:58:18;15.90;97.40
36856;DHT22;22788;51.434;6.786;2022-10-15T14:00:52;15.90;96.40
36856;DHT22;22788;51.434;6.786;2022-10-15T14:03:21;15.90;97.30
36856;DHT22;22788;51.434;6.786;2022-10-15T14:05:48;15.90;96.70
36856;DHT22;22788;51.434;6.786;2022-10-15T14:08:20;16.00;97.90
36856;DHT22;22788;51.434;6.786;2022-10-15T14:10:47;16.00;96.80
36856;DHT22;22788;51.434;6.786;2022-10-15T14:13:14;16.00;97.70
36856;DHT22;22788;51.434;6.786;2022-10-15T14:15:42;16.00;97.40
36856;DHT22;22788;51.434;6.786;2022-10-15T14:18:12;16.10;99.00
36856;DHT22;22788;51.434;6.786;2022-10-15T14:20:42;16.20;99.10
36856;DHT22;22788;51.434;6.786;2022-10-15T14:23:19;16.10;97.70
36856;DHT22;22788;51.434;6.786;2022-10-15T14:25:51;16.00;96.60
36856;DHT22;22788;51.434;6.786;2022-10-15T14:28:19;16.00;96.30
36856;DHT22;22788;51.434;6.786;2022-10-15T14:30:46;15.90;97.50
36856;DHT22;22788;51.434;6.786;2022-10-15T14:33:33;16.00;98.00
36856;DHT22;22788;51.434;6.786;2022-10-15T14:36:06;16.00;97.90
36856;DHT22;22788;51.434;6.786;2022-10-15T14:38:33;15.90;97.60
36856;DHT22;22788;51.434;6.786;2022-10-15T14:41:00;16.00;98.80
36856;DHT22;22788;51.434;6.786;2022-10-15T14:43:31;16.00;97.40
36856;DHT22;22788;51.434;6.786;2022-10-15T14:45:59;15.90;96.60
36856;DHT22;22788;51.434;6.786;2022-10-15T14:48:27;15.90;97.10
36856;DHT22;22788;51.434;6.786;2022-10-15T14:50:59;15.90;98.30
36856;DHT22;22788;51.434;6.786;2022-10-15T14:53:27;15.90;96.90
36856;DHT22;22788;51.434;6.786;2022-10-15T14:55:56;15.90;97.60
36856;DHT22;22788;51.434;6.786;2022-10-15T14:58:25;15.90;98.50
36856;DHT22;22788;51.434;6.786;2022-10-15T15:00:55;15.90;98.20
36856;DHT22;22788;51.434;6.786;2022-10-15T15:03:27;15.90;96.90
36856;DHT22;22788;51.434;6.786;2022-10-15T15:05:55;15.80;96.70
36856;DHT22;22788;51.434;6.786;2022-10-15T15:08:25;15.80;96.90
36856;DHT22;22788;51.434;6.786;2022-10-15T15:10:54;15.90;97.60
36856;DHT22;22788;51.434;6.786;2022-10-15T15:13:22;15.90;97.20
36856;DHT22;22788;51.434;6.786;2022-10-15T15:15:49;15.90;96.40
36856;DHT22;22788;51.434;6.786;2022-10-15T15:18:15;15.90;96.70
36856;DHT22;22788;51.434;6.786;2022-10-15T15:20:42;15.90;97.20
36856;DHT22;22788;51.434;6.786;2022-10-15T15:23:09;15.90;97.80
36856;DHT22;22788;51.434;6.786;2022-10-15T15:25:40;15.90;96.80
36856;DHT22;22788;51.434;6.786;2022-10-15T15:28:11;15.80;97.40
36856;DHT22;22788;51.434;6.786;2022-10-15T15:30:39;15.90;96.80
36856;DHT22;22788;51.434;6.786;2022-10-15T15:33:08;15.90;97.10
36856;DHT22;22788;51.434;6.786;2022-10-15T15:35:38;15.90;96.40
36856;DHT22;22788;51.434;6.786;2022-10-15T15:38:05;15.90;97.10
36856;DHT22;22788;51.434;6.786;2022-10-15T15:40:32;15.90;96.50
36856;DHT22;22788;51.434;6.786;2022-10-15T15:42:59;15.90;96.30
36856;DHT22;22788;51.434;6.786;2022-10-15T15:45:26;15.90;97.60
36856;DHT22;22788;51.434;6.786;2022-10-15T15:47:53;16.00;97.00
36856;DHT22;22788;51.434;6.786;2022-10-15T15:50:20;16.00;97.20